createdAt,value
2017-09-09T00:01:12.649Z,16.40
2017-09-09T00:03:40.124Z,16.40
2017-09-09T00:06:08.353Z,16.40
2017-09-09T00:08:35.832Z,16.40
2017-09-09T00:11:03.292Z,16.40
2017-09-09T00:13:30.768Z,16.40
2017-09-09T00:15:58.223Z,16.40
2017-09-09T00:18:25.702Z,16.30
2017-09-09T00:20:53.940Z,16.20
2017-09-09T00:23:21.413Z,16.30
2017-09-09T00:25:48.880Z,16.30
2017-09-09T00:28:16.364Z,16.20
2017-09-09T00:30:44.595Z,16.20
2017-09-09T00:33:12.083Z,16.30
2017-09-09T00:35:40.312Z,16.30
2017-09-09T00:38:07.780Z,16.30
2017-09-09T00:40:35.243Z,16.40
2017-09-09T00:43:02.713Z,16.40
2017-09-09T00:45:30.176Z,16.40
2017-09-09T00:47:57.640Z,16.40
2017-09-09T00:50:25.111Z,16.40
2017-09-09T00:52:53.334Z,16.30
2017-09-09T00:55:20.812Z,16.30
2017-09-09T00:57:48.273Z,16.40
2017-09-09T01:00:18.465Z,16.40
2017-09-09T01:02:45.983Z,16.40
2017-09-09T01:05:14.214Z,16.40
2017-09-09T01:07:41.699Z,16.40
2017-09-09T01:10:09.185Z,16.40
2017-09-09T01:12:37.420Z,16.40
2017-09-09T01:15:04.901Z,16.40
2017-09-09T01:17:32.360Z,16.50
2017-09-09T01:20:00.606Z,16.70
2017-09-09T01:22:28.070Z,16.70
2017-09-09T01:24:55.580Z,16.80
2017-09-09T01:27:23.044Z,16.90
2017-09-09T01:29:50.523Z,16.90
2017-09-09T01:32:17.988Z,16.90
2017-09-09T01:34:45.460Z,16.90
2017-09-09T01:37:12.918Z,16.90
2017-09-09T01:39:41.173Z,16.80
2017-09-09T01:42:08.635Z,16.80
2017-09-09T01:44:36.097Z,16.70
2017-09-09T01:47:03.568Z,16.70
2017-09-09T01:49:31.027Z,16.70
2017-09-09T01:51:58.500Z,16.60
2017-09-09T01:54:25.964Z,16.50
2017-09-09T01:56:53.448Z,16.50
2017-09-09T01:59:20.912Z,16.50
2017-09-09T02:01:48.393Z,16.50
2017-09-09T02:04:15.861Z,16.50
2017-09-09T02:06:43.331Z,16.40
2017-09-09T02:09:10.799Z,16.40
2017-09-09T02:11:38.283Z,16.40
2017-09-09T02:14:05.741Z,16.40
2017-09-09T02:16:33.989Z,16.40
2017-09-09T02:19:01.452Z,16.40
2017-09-09T02:21:28.923Z,16.40
2017-09-09T02:23:56.377Z,16.50
2017-09-09T02:26:24.620Z,16.40
2017-09-09T02:28:52.079Z,16.40
2017-09-09T02:31:19.557Z,16.40
2017-09-09T02:33:47.023Z,16.40
2017-09-09T02:36:14.471Z,16.50
2017-09-09T02:38:41.938Z,16.40
2017-09-09T02:41:09.395Z,16.30
2017-09-09T02:43:36.872Z,16.30
2017-09-09T02:46:05.639Z,16.30
2017-09-09T02:48:33.107Z,16.30
2017-09-09T02:51:00.564Z,16.30
2017-09-09T02:53:28.044Z,16.30
2017-09-09T02:55:56.277Z,16.30
2017-09-09T02:58:23.743Z,16.30
2017-09-09T03:00:51.199Z,16.30
2017-09-09T03:03:18.676Z,16.30
2017-09-09T03:05:46.140Z,16.20
2017-09-09T03:08:13.616Z,16.20
2017-09-09T03:10:41.838Z,16.10
2017-09-09T03:13:09.310Z,16.10
2017-09-09T03:15:36.774Z,16.10
2017-09-09T03:18:04.241Z,16.00
2017-09-09T03:20:31.707Z,16.00
2017-09-09T03:22:59.177Z,15.90
2017-09-09T03:25:27.402Z,15.90
2017-09-09T03:27:54.867Z,15.90
2017-09-09T03:30:22.337Z,16.00
2017-09-09T03:32:49.794Z,15.90
2017-09-09T03:35:17.275Z,15.90
2017-09-09T03:37:44.729Z,15.90
2017-09-09T03:40:12.194Z,16.00
2017-09-09T03:42:40.418Z,16.00
2017-09-09T03:45:07.896Z,16.00
2017-09-09T03:47:35.347Z,15.90
2017-09-09T03:50:02.823Z,15.90
2017-09-09T03:52:30.287Z,16.00
2017-09-09T03:54:58.115Z,15.90
2017-09-09T03:57:25.574Z,15.90
2017-09-09T03:59:53.043Z,15.90
2017-09-09T04:02:20.516Z,15.90
2017-09-09T04:04:47.986Z,15.90
2017-09-09T04:07:15.469Z,15.90
2017-09-09T04:09:43.703Z,15.90
2017-09-09T04:12:11.159Z,15.80
2017-09-09T04:14:38.634Z,15.90
2017-09-09T04:17:06.092Z,15.90
2017-09-09T04:19:33.551Z,15.90
2017-09-09T04:22:01.020Z,15.90
2017-09-09T04:24:28.484Z,15.90
2017-09-09T04:26:55.959Z,15.90
2017-09-09T04:29:24.180Z,16.10
2017-09-09T04:31:51.654Z,16.10
2017-09-09T04:34:19.111Z,16.10
2017-09-09T04:36:46.575Z,16.20
2017-09-09T04:39:14.041Z,16.20
2017-09-09T04:41:41.516Z,16.20
2017-09-09T04:44:09.746Z,16.30
2017-09-09T04:46:37.218Z,16.30
2017-09-09T04:49:04.683Z,16.30
2017-09-09T04:51:32.162Z,16.40
2017-09-09T04:54:00.405Z,16.40
2017-09-09T04:56:28.248Z,16.40
2017-09-09T04:58:55.699Z,16.50
2017-09-09T05:01:23.171Z,16.50
2017-09-09T05:03:50.631Z,16.60
2017-09-09T05:06:18.101Z,16.60
2017-09-09T05:08:45.573Z,16.60
2017-09-09T05:11:13.024Z,16.60
2017-09-09T05:13:40.499Z,16.70
2017-09-09T05:16:07.951Z,16.70
2017-09-09T05:18:35.423Z,16.70
2017-09-09T05:21:02.882Z,16.70
2017-09-09T05:23:31.119Z,16.60
2017-09-09T05:25:58.574Z,16.60
2017-09-09T05:28:26.043Z,16.70
2017-09-09T05:30:53.503Z,16.70
2017-09-09T05:33:20.975Z,16.60
2017-09-09T05:35:48.435Z,16.60
2017-09-09T05:38:15.907Z,16.50
2017-09-09T05:40:43.367Z,16.50
2017-09-09T05:43:10.845Z,16.50
2017-09-09T05:45:38.320Z,16.40
2017-09-09T05:48:05.791Z,16.40
2017-09-09T05:50:33.255Z,16.40
2017-09-09T05:53:00.722Z,16.50
2017-09-09T05:55:28.183Z,16.50
2017-09-09T05:57:55.648Z,16.60
2017-09-09T06:00:23.107Z,16.60
2017-09-09T06:02:50.562Z,16.70
2017-09-09T06:05:18.031Z,16.80
2017-09-09T06:07:45.500Z,16.90
2017-09-09T06:10:12.973Z,16.90
2017-09-09T06:12:41.195Z,17.10
2017-09-09T06:15:08.710Z,17.10
2017-09-09T06:17:36.933Z,17.10
2017-09-09T06:20:04.404Z,17.10
2017-09-09T06:22:31.893Z,17.20
2017-09-09T06:24:59.355Z,17.20
2017-09-09T06:27:27.577Z,17.20
2017-09-09T06:29:55.049Z,17.20
2017-09-09T06:32:22.507Z,17.30
2017-09-09T06:34:49.970Z,17.20
2017-09-09T06:37:17.430Z,17.20
2017-09-09T06:39:44.899Z,17.10
2017-09-09T06:42:12.356Z,17.00
2017-09-09T06:44:39.823Z,16.90
2017-09-09T06:47:07.286Z,17.00
2017-09-09T06:49:34.756Z,17.00
2017-09-09T06:52:02.979Z,17.00
2017-09-09T06:54:30.454Z,17.00
2017-09-09T06:56:57.925Z,17.00
2017-09-09T06:59:26.150Z,17.00
2017-09-09T07:01:53.623Z,17.00
2017-09-09T07:04:21.082Z,17.10
2017-09-09T07:06:48.570Z,17.00
2017-09-09T07:09:16.244Z,17.10
2017-09-09T07:11:43.707Z,17.00
2017-09-09T07:14:11.184Z,16.90
2017-09-09T07:16:39.424Z,17.10
2017-09-09T07:19:06.888Z,17.10
2017-09-09T07:21:34.347Z,17.00
2017-09-09T07:24:01.807Z,17.00
2017-09-09T07:26:29.287Z,17.00
2017-09-09T07:28:57.506Z,16.90
2017-09-09T07:31:24.982Z,16.90
2017-09-09T07:33:52.443Z,17.00
2017-09-09T07:36:19.911Z,17.00
2017-09-09T07:38:47.375Z,17.00
2017-09-09T07:41:14.842Z,17.10
2017-09-09T07:43:48.536Z,17.00
2017-09-09T07:46:16.017Z,17.10
2017-09-09T07:48:43.471Z,17.20
2017-09-09T07:51:10.939Z,17.20
2017-09-09T07:53:39.165Z,17.20
2017-09-09T07:56:06.622Z,17.20
2017-09-09T07:58:34.090Z,17.30
2017-09-09T08:01:01.555Z,17.30
2017-09-09T08:03:29.024Z,17.30
2017-09-09T08:05:56.487Z,17.20
2017-09-09T08:08:23.957Z,17.00
2017-09-09T08:10:52.182Z,17.00
2017-09-09T08:13:19.651Z,17.00
2017-09-09T08:15:47.119Z,16.90
2017-09-09T08:18:14.574Z,16.90
2017-09-09T08:20:42.067Z,16.80
2017-09-09T08:23:09.505Z,16.90
2017-09-09T08:25:36.959Z,16.90
2017-09-09T08:28:04.474Z,16.90
2017-09-09T08:30:31.934Z,16.90
2017-09-09T08:32:59.409Z,16.90
2017-09-09T08:35:26.907Z,16.90
2017-09-09T08:37:54.383Z,17.10
2017-09-09T08:40:22.611Z,17.20
2017-09-09T08:42:50.088Z,17.10
2017-09-09T08:45:17.542Z,17.20
2017-09-09T08:47:44.999Z,17.20
2017-09-09T08:50:12.467Z,17.10
2017-09-09T08:52:39.923Z,17.10
2017-09-09T08:55:07.400Z,17.00
2017-09-09T08:57:35.628Z,17.00
2017-09-09T09:00:03.090Z,17.00
2017-09-09T09:02:30.552Z,17.10
2017-09-09T09:04:58.022Z,17.20
2017-09-09T09:07:25.487Z,17.20
2017-09-09T09:09:52.960Z,17.20
2017-09-09T09:12:20.681Z,17.20
2017-09-09T09:14:48.142Z,17.10
2017-09-09T09:17:15.594Z,17.20
2017-09-09T09:19:43.068Z,17.20
2017-09-09T09:22:11.291Z,17.10
2017-09-09T09:24:39.535Z,17.10
2017-09-09T09:27:06.995Z,17.10
2017-09-09T09:29:34.461Z,17.10
2017-09-09T09:32:01.935Z,17.10
2017-09-09T09:34:29.394Z,17.20
2017-09-09T09:36:57.632Z,17.20
2017-09-09T09:39:25.091Z,17.20
2017-09-09T09:42:15.862Z,17.30
2017-09-09T09:44:43.316Z,17.30
2017-09-09T09:47:10.791Z,17.10
2017-09-09T09:49:41.169Z,17.20
2017-09-09T09:52:08.636Z,17.10
2017-09-09T09:54:36.096Z,17.00
2017-09-09T09:57:04.335Z,16.90
2017-09-09T09:59:31.795Z,16.90
2017-09-09T10:01:59.275Z,16.90
2017-09-09T10:04:26.725Z,17.00
2017-09-09T10:06:54.198Z,17.10
2017-09-09T10:09:22.438Z,17.30
2017-09-09T10:11:50.602Z,17.20
2017-09-09T10:14:18.059Z,17.40
2017-09-09T10:16:45.535Z,17.40
2017-09-09T10:19:16.027Z,17.60
2017-09-09T10:21:43.500Z,17.70
2017-09-09T10:24:31.836Z,17.80
2017-09-09T10:26:59.308Z,17.80
2017-09-09T10:29:26.763Z,17.90
2017-09-09T10:31:54.240Z,17.80
2017-09-09T10:34:21.707Z,17.80
2017-09-09T10:36:49.172Z,17.80
2017-09-09T10:39:16.639Z,17.80
2017-09-09T10:41:44.151Z,17.80
2017-09-09T10:44:11.611Z,17.80
2017-09-09T10:46:39.077Z,17.80
2017-09-09T10:49:06.544Z,17.90
2017-09-09T10:51:34.003Z,18.00
2017-09-09T10:54:01.489Z,18.20
2017-09-09T10:56:28.955Z,18.20
2017-09-09T10:58:56.419Z,18.10
2017-09-09T11:01:24.647Z,18.10
2017-09-09T11:03:52.120Z,18.10
2017-09-09T11:06:19.578Z,18.20
2017-09-09T11:08:47.060Z,18.20
2017-09-09T11:11:14.519Z,18.40
2017-09-09T11:13:41.988Z,18.50
2017-09-09T11:16:10.219Z,18.60
2017-09-09T11:18:37.695Z,18.60
2017-09-09T11:21:05.151Z,18.60
2017-09-09T11:23:32.636Z,18.70
2017-09-09T11:26:00.098Z,18.50
2017-09-09T11:28:27.548Z,18.40
2017-09-09T11:30:55.016Z,18.40
2017-09-09T11:33:23.240Z,18.50
2017-09-09T11:35:50.708Z,18.50
2017-09-09T11:38:18.174Z,18.50
2017-09-09T11:40:45.653Z,18.50
2017-09-09T11:43:13.143Z,18.80
2017-09-09T11:45:41.367Z,18.90
2017-09-09T11:48:08.830Z,18.90
2017-09-09T11:50:36.300Z,18.90
2017-09-09T11:53:03.763Z,18.80
2017-09-09T11:55:31.237Z,18.80
2017-09-09T11:57:59.482Z,18.80
2017-09-09T12:00:26.947Z,18.70
2017-09-09T12:02:54.410Z,18.90
2017-09-09T12:05:21.899Z,19.20
2017-09-09T12:07:50.128Z,19.10
2017-09-09T12:10:17.875Z,19.10
2017-09-09T12:12:45.331Z,18.90
2017-09-09T12:15:12.807Z,18.80
2017-09-09T12:17:40.272Z,18.80
2017-09-09T12:20:07.736Z,19.00
2017-09-09T12:22:35.198Z,19.20
2017-09-09T12:25:02.673Z,19.30
2017-09-09T12:27:30.903Z,19.40
2017-09-09T12:29:58.577Z,19.40
2017-09-09T12:32:26.079Z,19.40
2017-09-09T12:34:54.311Z,19.40
2017-09-09T12:37:21.896Z,19.40
2017-09-09T12:39:50.233Z,19.20
2017-09-09T12:42:17.959Z,19.20
2017-09-09T12:44:45.447Z,19.10
2017-09-09T12:47:12.924Z,19.10
2017-09-09T12:49:40.389Z,19.00
2017-09-09T12:52:09.961Z,18.90
2017-09-09T12:54:37.427Z,18.80
2017-09-09T12:57:04.900Z,18.70
2017-09-09T12:59:32.358Z,18.70
2017-09-09T13:01:59.993Z,18.70
2017-09-09T13:04:27.459Z,18.60
2017-09-09T13:06:54.937Z,18.60
2017-09-09T13:09:22.400Z,18.50
2017-09-09T13:11:50.552Z,18.50
2017-09-09T13:14:18.005Z,18.50
2017-09-09T13:16:45.469Z,18.50
2017-09-09T13:19:12.939Z,18.70
2017-09-09T13:21:40.403Z,18.90
2017-09-09T13:24:07.873Z,19.00
2017-09-09T13:26:35.331Z,18.90
2017-09-09T13:29:02.807Z,18.80
2017-09-09T13:31:30.273Z,18.90
2017-09-09T13:33:57.965Z,19.00
2017-09-09T13:36:25.449Z,19.00
2017-09-09T13:38:52.921Z,19.10
2017-09-09T13:41:20.374Z,19.30
2017-09-09T13:43:47.852Z,19.40
2017-09-09T13:46:15.319Z,19.50
2017-09-09T13:48:42.792Z,19.40
2017-09-09T13:51:10.256Z,19.40
2017-09-09T13:53:37.730Z,19.30
2017-09-09T13:56:05.959Z,19.60
2017-09-09T13:58:33.429Z,19.60
2017-09-09T14:01:00.897Z,19.70
2017-09-09T14:03:28.350Z,19.70
2017-09-09T14:05:55.819Z,19.80
2017-09-09T14:08:23.273Z,19.60
2017-09-09T14:10:50.745Z,19.60
2017-09-09T14:13:18.223Z,19.40
2017-09-09T14:15:45.692Z,19.40
2017-09-09T14:18:13.153Z,19.40
2017-09-09T14:20:40.622Z,19.40
2017-09-09T14:23:08.086Z,19.40
2017-09-09T14:25:35.556Z,19.40
2017-09-09T14:28:03.015Z,19.50
2017-09-09T14:30:30.482Z,19.50
2017-09-09T14:32:57.943Z,19.50
2017-09-09T14:35:25.412Z,19.60
2017-09-09T14:37:52.869Z,19.60
2017-09-09T14:40:20.330Z,19.50
2017-09-09T14:42:47.791Z,19.30
2017-09-09T14:45:15.276Z,19.20
2017-09-09T14:47:42.736Z,19.10
2017-09-09T14:50:10.967Z,18.90
2017-09-09T14:52:38.427Z,18.90
2017-09-09T14:55:05.905Z,18.80
2017-09-09T14:57:33.372Z,18.70
2017-09-09T15:00:01.595Z,18.50
2017-09-09T15:02:29.063Z,18.50
2017-09-09T15:04:56.539Z,18.40
2017-09-09T15:07:23.994Z,18.40
2017-09-09T15:09:51.451Z,18.40
2017-09-09T15:12:18.924Z,18.40
2017-09-09T15:14:46.382Z,18.30
2017-09-09T15:17:13.860Z,18.30
2017-09-09T15:19:42.088Z,18.30
2017-09-09T15:22:09.554Z,18.30
2017-09-09T15:24:37.006Z,18.20
2017-09-09T15:27:04.474Z,18.20
2017-09-09T15:29:31.931Z,18.20
2017-09-09T15:31:59.403Z,18.50
2017-09-09T15:34:26.867Z,18.70
2017-09-09T15:36:54.341Z,18.80
2017-09-09T15:39:22.567Z,18.70
2017-09-09T15:41:50.186Z,18.70
2017-09-09T15:44:18.411Z,18.40
2017-09-09T15:46:45.895Z,18.40
2017-09-09T15:49:13.362Z,18.10
2017-09-09T15:51:40.824Z,18.00
2017-09-09T15:54:08.295Z,17.90
2017-09-09T15:56:35.747Z,17.80
2017-09-09T15:59:03.974Z,17.70
2017-09-09T16:01:31.436Z,17.70
2017-09-09T16:03:58.904Z,17.60
2017-09-09T16:06:26.376Z,17.50
2017-09-09T16:08:53.843Z,17.40
2017-09-09T16:11:21.303Z,17.40
2017-09-09T16:13:48.804Z,17.40
2017-09-09T16:16:16.259Z,17.40
2017-09-09T16:18:43.748Z,17.30
2017-09-09T16:21:11.966Z,17.40
2017-09-09T16:23:40.211Z,17.40
2017-09-09T16:26:07.671Z,17.40
2017-09-09T16:28:35.139Z,17.40
2017-09-09T16:31:02.600Z,17.40
2017-09-09T16:33:30.071Z,17.40
2017-09-09T16:35:58.294Z,17.30
2017-09-09T16:38:25.780Z,17.30
2017-09-09T16:40:53.236Z,17.40
2017-09-09T16:43:20.704Z,17.40
2017-09-09T16:45:48.178Z,17.30
2017-09-09T16:48:16.411Z,17.40
2017-09-09T16:50:43.890Z,17.40
2017-09-09T16:53:11.352Z,17.50
2017-09-09T16:55:38.824Z,17.50
2017-09-09T16:58:06.275Z,17.40
2017-09-09T17:00:33.750Z,17.40
2017-09-09T17:03:01.983Z,17.00
2017-09-09T17:05:29.451Z,17.00
2017-09-09T17:07:56.911Z,17.00
2017-09-09T17:10:24.403Z,16.90
2017-09-09T17:12:52.634Z,16.80
2017-09-09T17:15:20.108Z,16.90
2017-09-09T17:17:47.574Z,16.70
2017-09-09T17:20:15.050Z,16.70
2017-09-09T17:22:42.512Z,16.60
2017-09-09T17:25:10.742Z,16.60
2017-09-09T17:27:38.201Z,16.60
2017-09-09T17:30:05.681Z,16.60
2017-09-09T17:32:33.139Z,16.60
2017-09-09T17:35:00.601Z,16.60
2017-09-09T17:37:28.062Z,16.60
2017-09-09T17:39:55.524Z,16.60
2017-09-09T17:42:22.987Z,16.50
2017-09-09T17:44:51.227Z,16.60
2017-09-09T17:47:18.707Z,16.50
2017-09-09T17:49:46.166Z,16.50
2017-09-09T17:52:13.634Z,16.40
2017-09-09T17:54:41.872Z,16.40
2017-09-09T17:57:09.334Z,16.40
2017-09-09T17:59:36.812Z,16.40
2017-09-09T18:02:04.312Z,16.40
2017-09-09T18:04:31.743Z,16.30
2017-09-09T18:06:59.216Z,16.40
2017-09-09T18:09:27.441Z,16.20
2017-09-09T18:11:54.914Z,16.20
2017-09-09T18:14:22.391Z,16.10
2017-09-09T18:16:49.903Z,16.00
2017-09-09T18:19:17.344Z,15.80
2017-09-09T18:21:44.824Z,15.80
2017-09-09T18:24:12.299Z,15.80
2017-09-09T18:26:39.755Z,15.80
2017-09-09T18:29:07.242Z,15.70
2017-09-09T18:31:34.697Z,15.70
2017-09-09T18:34:02.166Z,15.60
2017-09-09T18:36:29.628Z,15.60
2017-09-09T18:38:57.867Z,15.60
2017-09-09T18:41:25.324Z,15.60
2017-09-09T18:43:52.795Z,15.60
2017-09-09T18:46:20.251Z,15.60
2017-09-09T18:48:47.728Z,15.60
2017-09-09T18:51:15.183Z,15.60
2017-09-09T18:53:42.650Z,15.50
2017-09-09T18:56:10.877Z,15.50
2017-09-09T18:58:38.351Z,15.50
2017-09-09T19:01:05.813Z,15.50
2017-09-09T19:03:33.283Z,15.50
2017-09-09T19:06:00.744Z,15.40
2017-09-09T19:08:28.207Z,15.40
2017-09-09T19:10:55.672Z,15.30
2017-09-09T19:13:23.139Z,15.30
2017-09-09T19:15:50.595Z,15.30
2017-09-09T19:18:18.331Z,15.30
2017-09-09T19:20:45.795Z,15.30
2017-09-09T19:23:13.254Z,15.20
2017-09-09T19:25:40.719Z,15.20
2017-09-09T19:28:08.179Z,15.30
2017-09-09T19:30:35.651Z,15.30
2017-09-09T19:33:03.905Z,15.30
2017-09-09T19:35:31.371Z,15.30
2017-09-09T19:37:58.831Z,15.30
2017-09-09T19:40:26.312Z,15.30
2017-09-09T19:42:54.535Z,15.40
2017-09-09T19:45:22.003Z,15.40
2017-09-09T19:47:50.228Z,15.50
2017-09-09T19:50:17.700Z,15.50
2017-09-09T19:52:45.527Z,15.60
2017-09-09T19:55:12.987Z,15.70
2017-09-09T19:57:40.469Z,15.70
2017-09-09T20:00:07.938Z,15.60
2017-09-09T20:02:35.401Z,15.60
2017-09-09T20:05:02.867Z,15.60
2017-09-09T20:07:30.327Z,15.60
2017-09-09T20:09:57.808Z,15.50
2017-09-09T20:12:25.283Z,15.50
2017-09-09T20:14:52.745Z,15.40
2017-09-09T20:17:20.216Z,15.40
2017-09-09T20:19:48.447Z,15.20
2017-09-09T20:22:15.920Z,15.20
2017-09-09T20:24:44.155Z,15.20
2017-09-09T20:27:11.630Z,15.20
2017-09-09T20:29:39.087Z,15.20
2017-09-09T20:32:07.255Z,15.30
2017-09-09T20:34:34.724Z,15.30
2017-09-09T20:37:02.183Z,15.30
2017-09-09T20:39:29.643Z,15.40
2017-09-09T20:41:57.117Z,15.50
2017-09-09T20:44:24.575Z,15.50
2017-09-09T20:46:52.053Z,15.50
2017-09-09T20:49:19.511Z,15.40
2017-09-09T20:51:46.992Z,15.40
2017-09-09T20:54:15.231Z,15.30
2017-09-09T20:56:42.707Z,15.30
2017-09-09T20:59:10.172Z,15.30
2017-09-09T21:01:38.418Z,15.20
2017-09-09T21:04:05.890Z,15.20
2017-09-09T21:06:33.362Z,15.10
2017-09-09T21:09:00.831Z,15.10
2017-09-09T21:11:29.055Z,14.90
2017-09-09T21:13:56.528Z,14.90
2017-09-09T21:16:23.985Z,14.90
2017-09-09T21:18:51.462Z,14.90
2017-09-09T21:21:18.958Z,14.80
2017-09-09T21:23:46.452Z,14.90
2017-09-09T21:26:13.959Z,14.80
2017-09-09T21:28:42.216Z,14.80
2017-09-09T21:31:09.683Z,14.80
2017-09-09T21:33:37.159Z,14.80
2017-09-09T21:36:04.611Z,14.80
2017-09-09T21:38:32.843Z,14.80
2017-09-09T21:41:00.303Z,14.80
2017-09-09T21:43:27.775Z,14.80
2017-09-09T21:45:55.244Z,14.80
2017-09-09T21:48:22.716Z,14.90
2017-09-09T21:50:50.958Z,14.80
2017-09-09T21:53:18.428Z,14.90
2017-09-09T21:55:45.887Z,14.90
2017-09-09T21:58:13.352Z,14.90
2017-09-09T22:00:40.818Z,15.00
2017-09-09T22:03:08.287Z,15.10
2017-09-09T22:05:35.776Z,15.00
2017-09-09T22:08:03.236Z,15.00
2017-09-09T22:10:30.706Z,15.10
2017-09-09T22:12:58.167Z,15.10
2017-09-09T22:15:25.642Z,15.30
2017-09-09T22:17:53.863Z,15.30
2017-09-09T22:20:21.335Z,15.30
2017-09-09T22:22:48.794Z,15.40
2017-09-09T22:25:16.267Z,15.30
2017-09-09T22:27:43.731Z,15.20
2017-09-09T22:30:11.202Z,15.10
2017-09-09T22:32:39.476Z,15.00
2017-09-09T22:35:06.942Z,15.10
2017-09-09T22:37:34.411Z,15.10
2017-09-09T22:40:01.875Z,14.90
2017-09-09T22:42:29.355Z,14.80
2017-09-09T22:44:57.993Z,14.80
2017-09-09T22:47:25.532Z,14.80
2017-09-09T22:49:52.995Z,14.90
2017-09-09T22:52:20.466Z,14.90
2017-09-09T22:54:47.923Z,14.90
2017-09-09T22:57:15.394Z,14.70
2017-09-09T22:59:42.850Z,14.60
2017-09-09T23:02:10.315Z,14.60
2017-09-09T23:04:38.543Z,14.60
2017-09-09T23:07:06.016Z,14.60
2017-09-09T23:09:33.486Z,14.60
2017-09-09T23:12:00.955Z,14.70
2017-09-09T23:14:28.418Z,14.70
2017-09-09T23:16:55.892Z,14.70
2017-09-09T23:19:23.342Z,14.70
2017-09-09T23:21:50.808Z,14.60
2017-09-09T23:24:18.272Z,14.70
2017-09-09T23:26:45.747Z,14.60
2017-09-09T23:29:13.968Z,14.60
2017-09-09T23:31:41.517Z,14.60
2017-09-09T23:34:08.981Z,14.60
2017-09-09T23:36:36.440Z,14.50
2017-09-09T23:39:03.907Z,14.50
2017-09-09T23:41:31.371Z,14.50
2017-09-09T23:43:59.635Z,14.50
2017-09-09T23:46:27.073Z,14.50
2017-09-09T23:48:54.540Z,14.50
2017-09-09T23:51:22.008Z,14.50
2017-09-09T23:53:49.476Z,14.40
2017-09-09T23:56:16.930Z,14.50
2017-09-09T23:58:44.403Z,14.40
